Terminal Aerodrome Forecast
Issued by NWS Northern Indiana

Home | Current Version | Previous Version | Graphics & Text | Print | Product List | Glossary On
Versions: 1 2 3 4 5 6 7 8 9 10 11 12 13 14 15
043
FTUS43 KIWX 240529
TAFFWA
TAF
KFWA 240529Z 2406/2506 20006KT P6SM SCT050 BKN250
     FM240800 VRB03KT 5SM BR BKN200
     FM241300 22008KT P6SM BKN250=

USA.gov is the U.S. government's official web portal to all federal, state and local government web resources and services.